createdAt,value
2022-12-13T00:00:35.329Z,58.13
2022-12-13T00:03:01.983Z,57.03
2022-12-13T00:05:28.481Z,71.68
2022-12-13T00:07:55.139Z,52.90
2022-12-13T00:10:21.692Z,59.63
2022-12-13T00:12:48.278Z,56.35
2022-12-13T00:15:15.026Z,60.40
2022-12-13T00:17:42.140Z,47.65
2022-12-13T00:20:09.012Z,47.45
2022-12-13T00:22:35.576Z,44.78
2022-12-13T00:25:02.204Z,47.15
2022-12-13T00:27:28.781Z,56.13
2022-12-13T00:29:55.502Z,36.35
2022-12-13T00:32:22.250Z,36.28
2022-12-13T00:34:49.832Z,50.38
2022-12-13T00:37:16.391Z,42.55
2022-12-13T00:39:43.153Z,48.40
2022-12-13T00:42:10.471Z,44.38
2022-12-13T00:44:37.686Z,51.35
2022-12-13T00:47:04.214Z,51.25
2022-12-13T00:49:30.769Z,47.45
2022-12-13T00:51:57.312Z,56.78
2022-12-13T00:54:24.063Z,52.20
2022-12-13T00:56:51.494Z,48.85
2022-12-13T00:59:18.178Z,42.97
2022-12-13T01:01:44.982Z,46.10
2022-12-13T01:04:12.198Z,40.50
2022-12-13T01:06:40.499Z,36.58
2022-12-13T01:09:08.173Z,40.35
2022-12-13T01:11:34.723Z,32.63
2022-12-13T01:14:02.682Z,41.05
2022-12-13T01:16:29.336Z,35.28
2022-12-13T01:18:57.242Z,50.03
2022-12-13T01:21:23.717Z,53.60
2022-12-13T01:23:50.839Z,42.85
2022-12-13T01:26:18.763Z,44.80
2022-12-13T01:28:45.343Z,48.33
2022-12-13T01:31:13.962Z,39.72
2022-12-13T01:33:41.352Z,30.67
2022-12-13T01:36:16.647Z,48.63
2022-12-13T01:38:43.523Z,32.53
2022-12-13T01:41:17.360Z,44.25
2022-12-13T01:43:45.129Z,22.70
2022-12-13T01:46:12.237Z,20.15
2022-12-13T01:48:41.394Z,25.25
2022-12-13T01:51:10.098Z,21.35
2022-12-13T01:53:38.558Z,22.42
2022-12-13T01:56:07.642Z,30.73
2022-12-13T01:58:35.670Z,13.63
2022-12-13T02:01:02.556Z,22.45
2022-12-13T02:03:29.147Z,24.42
2022-12-13T02:06:01.339Z,13.20
2022-12-13T02:08:29.690Z,23.45
2022-12-13T02:10:57.408Z,31.55
2022-12-13T02:13:24.131Z,18.60
2022-12-13T02:15:50.824Z,24.55
2022-12-13T02:18:20.470Z,18.85
2022-12-13T02:20:50.103Z,24.67
2022-12-13T02:23:16.766Z,26.20
2022-12-13T02:26:03.757Z,27.85
2022-12-13T02:28:42.519Z,38.00
2022-12-13T02:31:10.998Z,48.42
2022-12-13T02:33:43.753Z,25.95
2022-12-13T02:36:18.864Z,32.60
2022-12-13T02:38:52.589Z,39.78
2022-12-13T02:41:25.151Z,36.17
2022-12-13T02:44:01.326Z,32.90
2022-12-13T02:46:29.945Z,36.95
2022-12-13T02:48:57.347Z,53.58
2022-12-13T02:51:25.051Z,30.30
2022-12-13T02:53:51.591Z,34.30
2022-12-13T02:56:18.195Z,28.85
2022-12-13T02:58:47.225Z,14.68
2022-12-13T03:01:28.809Z,23.60
2022-12-13T03:04:08.019Z,30.50
2022-12-13T03:06:34.844Z,40.75
2022-12-13T03:09:24.586Z,29.30
2022-12-13T03:12:09.797Z,17.60
2022-12-13T03:14:38.999Z,36.97
2022-12-13T03:17:06.613Z,31.27
2022-12-13T03:19:33.162Z,47.85
2022-12-13T03:21:59.759Z,34.03
2022-12-13T03:24:26.211Z,29.30
2022-12-13T03:26:52.775Z,29.33
2022-12-13T03:29:24.777Z,63.03
2022-12-13T03:31:52.583Z,90.05
2022-12-13T03:34:22.948Z,40.33
2022-12-13T03:36:50.391Z,60.00
2022-12-13T03:39:16.961Z,43.92
2022-12-13T03:41:43.710Z,43.20
2022-12-13T03:44:10.283Z,39.85
2022-12-13T03:46:36.952Z,32.10
2022-12-13T03:49:03.799Z,39.15
2022-12-13T03:51:31.535Z,23.70
2022-12-13T03:53:58.024Z,30.52
2022-12-13T03:56:24.667Z,25.67
2022-12-13T03:58:51.231Z,59.20
2022-12-13T04:01:18.268Z,34.53
2022-12-13T04:03:46.163Z,29.13
2022-12-13T04:06:13.452Z,32.42
2022-12-13T04:08:51.147Z,41.92
2022-12-13T04:11:36.644Z,41.42
2022-12-13T04:14:09.710Z,30.38
2022-12-13T04:16:36.263Z,30.40
2022-12-13T04:19:02.841Z,49.20
2022-12-13T04:21:29.629Z,43.90
2022-12-13T04:23:56.380Z,58.03
2022-12-13T04:26:28.271Z,46.28
2022-12-13T04:28:54.995Z,47.67
2022-12-13T04:31:21.818Z,57.22
2022-12-13T04:33:48.440Z,30.05
2022-12-13T04:36:31.441Z,25.52
2022-12-13T04:39:00.643Z,16.88
2022-12-13T04:41:33.987Z,26.38
2022-12-13T04:44:01.648Z,79.90
2022-12-13T04:46:28.260Z,23.90
2022-12-13T04:48:54.766Z,40.25
2022-12-13T04:51:21.275Z,46.65
2022-12-13T04:53:47.879Z,45.17
2022-12-13T04:56:15.531Z,38.28
2022-12-13T04:58:42.246Z,43.05
2022-12-13T05:01:09.844Z,45.00
2022-12-13T05:03:37.285Z,23.35
2022-12-13T05:06:07.602Z,46.03
2022-12-13T05:08:54.567Z,46.15
2022-12-13T05:11:22.935Z,69.50
2022-12-13T05:13:49.876Z,50.75
2022-12-13T05:16:16.618Z,32.58
2022-12-13T05:18:43.183Z,43.20
2022-12-13T05:21:11.466Z,60.47
2022-12-13T05:23:38.983Z,58.33
2022-12-13T05:26:05.762Z,39.88
2022-12-13T05:28:32.366Z,32.75
2022-12-13T05:31:05.777Z,44.30
2022-12-13T05:33:50.398Z,64.40
2022-12-13T05:36:16.909Z,58.58
2022-12-13T05:38:43.456Z,80.72
2022-12-13T05:41:14.062Z,84.10
2022-12-13T05:43:42.315Z,86.68
2022-12-13T05:46:10.125Z,79.10
2022-12-13T05:48:36.636Z,74.18
2022-12-13T05:51:10.573Z,73.28
2022-12-13T05:53:38.516Z,83.53
2022-12-13T05:56:05.186Z,73.60
2022-12-13T05:58:35.578Z,50.45
2022-12-13T06:01:07.123Z,51.42
2022-12-13T06:03:34.438Z,50.67
2022-12-13T06:06:01.838Z,39.22
2022-12-13T06:08:29.002Z,75.30
2022-12-13T06:11:10.292Z,74.05
2022-12-13T06:13:41.973Z,82.35
2022-12-13T06:16:23.244Z,91.45
2022-12-13T06:18:54.498Z,65.90
2022-12-13T06:21:25.800Z,63.67
2022-12-13T06:23:52.315Z,65.20
2022-12-13T06:26:18.869Z,109.07
2022-12-13T06:28:45.446Z,102.93
2022-12-13T06:31:12.115Z,98.05
2022-12-13T06:33:39.186Z,99.53
2022-12-13T06:36:05.924Z,83.72
2022-12-13T06:38:32.612Z,109.28
2022-12-13T06:41:12.715Z,75.60
2022-12-13T06:43:41.902Z,81.68
2022-12-13T06:46:09.238Z,72.03
2022-12-13T06:48:35.947Z,98.10
2022-12-13T06:51:05.583Z,73.63
2022-12-13T06:53:32.513Z,94.75
2022-12-13T06:56:03.601Z,65.97
2022-12-13T06:58:30.251Z,85.93
2022-12-13T07:01:03.973Z,51.08
2022-12-13T07:03:31.949Z,68.38
2022-12-13T07:05:59.605Z,58.75
2022-12-13T07:08:26.383Z,52.85
2022-12-13T07:10:56.630Z,60.13
2022-12-13T07:13:23.298Z,35.63
2022-12-13T07:15:50.181Z,11.60
2022-12-13T07:18:17.526Z,23.40
2022-12-13T07:20:44.811Z,55.55
2022-12-13T07:23:11.874Z,51.47
2022-12-13T07:25:38.429Z,37.13
2022-12-13T07:28:06.385Z,23.35
2022-12-13T07:30:34.269Z,58.40
2022-12-13T07:33:08.130Z,36.55
2022-12-13T07:35:37.074Z,46.75
2022-12-13T07:38:08.964Z,52.50
2022-12-13T07:40:37.436Z,112.75
2022-12-13T07:43:04.053Z,47.17
2022-12-13T07:45:30.675Z,94.57
2022-12-13T07:47:57.177Z,73.28
2022-12-13T07:50:25.608Z,84.78
2022-12-13T07:52:52.585Z,99.95
2022-12-13T07:55:23.292Z,61.63
2022-12-13T07:58:05.204Z,40.10
2022-12-13T08:00:33.153Z,75.18
2022-12-13T08:03:01.005Z,47.22
2022-12-13T08:05:28.243Z,73.90
2022-12-13T08:07:54.964Z,51.40
2022-12-13T08:10:21.880Z,80.82
2022-12-13T08:12:50.092Z,46.22
2022-12-13T08:15:17.517Z,27.95
2022-12-13T08:17:44.348Z,48.85
2022-12-13T08:20:11.053Z,76.30
2022-12-13T08:22:37.754Z,76.88
2022-12-13T08:25:04.557Z,48.72
2022-12-13T08:27:31.364Z,39.45
2022-12-13T08:29:58.083Z,34.30
2022-12-13T08:32:24.859Z,44.97
2022-12-13T08:34:51.439Z,28.08
2022-12-13T08:37:18.831Z,37.65
2022-12-13T08:39:45.373Z,52.70
2022-12-13T08:42:19.005Z,40.33
2022-12-13T08:44:50.802Z,39.45
2022-12-13T08:47:27.461Z,56.38
2022-12-13T08:49:55.077Z,52.28
2022-12-13T08:52:22.942Z,57.47
2022-12-13T08:54:49.791Z,52.60
2022-12-13T08:57:16.359Z,53.30
2022-12-13T08:59:42.943Z,47.95
2022-12-13T09:02:11.816Z,75.35
2022-12-13T09:04:38.957Z,52.88
2022-12-13T09:07:05.595Z,46.72
2022-12-13T09:09:32.402Z,53.45
2022-12-13T09:12:00.087Z,62.10
2022-12-13T09:14:33.834Z,45.17
2022-12-13T09:17:02.784Z,60.92
2022-12-13T09:19:37.571Z,42.72
2022-12-13T09:22:04.765Z,64.13
2022-12-13T09:24:35.847Z,39.05
2022-12-13T09:27:09.694Z,45.10
2022-12-13T09:29:37.162Z,57.38
2022-12-13T09:32:03.944Z,43.33
2022-12-13T09:34:30.694Z,34.40
2022-12-13T09:37:01.753Z,29.42
2022-12-13T09:39:28.800Z,38.90
2022-12-13T09:42:01.202Z,42.35
2022-12-13T09:44:42.762Z,30.60
2022-12-13T09:47:35.729Z,40.35
2022-12-13T09:50:06.324Z,26.27
2022-12-13T09:52:37.693Z,49.03
2022-12-13T09:55:11.659Z,34.78
2022-12-13T09:57:38.266Z,40.05
2022-12-13T10:00:06.355Z,32.75
2022-12-13T10:02:43.549Z,60.40
2022-12-13T10:05:22.237Z,53.25
2022-12-13T10:07:50.469Z,45.17
2022-12-13T10:10:17.680Z,42.63
2022-12-13T10:12:45.438Z,50.17
2022-12-13T10:15:13.990Z,45.50
2022-12-13T10:17:55.126Z,42.35
2022-12-13T10:20:23.927Z,41.42
2022-12-13T10:23:15.066Z,51.20
2022-12-13T10:25:51.101Z,35.53
2022-12-13T10:28:24.128Z,38.38
2022-12-13T10:30:50.725Z,48.10
2022-12-13T10:33:24.441Z,45.90
2022-12-13T10:36:08.714Z,45.08
2022-12-13T10:38:37.091Z,45.35
2022-12-13T10:41:03.868Z,33.15
2022-12-13T10:43:32.063Z,46.30
2022-12-13T10:46:02.555Z,29.17
2022-12-13T10:48:39.100Z,35.60
2022-12-13T10:51:07.512Z,32.97
2022-12-13T10:53:36.172Z,26.90
2022-12-13T10:56:03.289Z,33.60
2022-12-13T10:58:37.884Z,37.22
2022-12-13T11:01:09.788Z,51.40
2022-12-13T11:03:36.606Z,32.95
2022-12-13T11:06:04.626Z,44.45
2022-12-13T11:08:31.408Z,41.13
2022-12-13T11:10:59.329Z,44.15
2022-12-13T11:13:32.049Z,44.15
2022-12-13T11:15:58.917Z,38.28
2022-12-13T11:18:27.130Z,31.40
2022-12-13T11:20:59.068Z,48.47
2022-12-13T11:23:27.806Z,22.67
2022-12-13T11:25:56.733Z,25.95
2022-12-13T11:28:39.483Z,36.55
2022-12-13T11:31:06.315Z,34.30
2022-12-13T11:33:48.037Z,17.58
2022-12-13T11:36:21.612Z,38.72
2022-12-13T11:38:58.073Z,49.08
2022-12-13T11:41:31.374Z,30.90
2022-12-13T11:44:02.602Z,29.48
2022-12-13T11:46:35.434Z,27.50
2022-12-13T11:49:18.232Z,33.63
2022-12-13T11:51:53.799Z,31.73
2022-12-13T11:54:24.332Z,45.30
2022-12-13T11:56:57.825Z,33.58
2022-12-13T11:59:39.839Z,42.90
2022-12-13T12:02:22.530Z,24.55
2022-12-13T12:04:55.049Z,36.28
2022-12-13T12:07:34.221Z,50.17
2022-12-13T12:10:07.277Z,24.55
2022-12-13T12:12:35.987Z,40.90
2022-12-13T12:15:15.755Z,31.42
2022-12-13T12:17:43.643Z,36.97
2022-12-13T12:20:13.050Z,30.92
2022-12-13T12:22:43.736Z,35.60
2022-12-13T12:25:13.351Z,34.67
2022-12-13T12:28:00.268Z,21.73
2022-12-13T12:30:42.739Z,27.60
2022-12-13T12:33:15.563Z,35.97
2022-12-13T12:35:49.249Z,35.22
2022-12-13T12:38:32.404Z,39.10
2022-12-13T12:41:17.100Z,35.72
2022-12-13T12:43:44.921Z,39.95
2022-12-13T12:46:11.591Z,30.40
2022-12-13T12:48:58.463Z,33.40
2022-12-13T12:51:35.103Z,35.60
2022-12-13T12:54:15.210Z,19.70
2022-12-13T12:57:17.305Z,26.70
2022-12-13T12:59:46.549Z,32.40
2022-12-13T13:02:21.653Z,25.83
2022-12-13T13:04:54.721Z,32.97
2022-12-13T13:07:31.851Z,48.40
2022-12-13T13:10:16.247Z,29.88
2022-12-13T13:12:53.395Z,31.48
2022-12-13T13:15:38.697Z,35.88
2022-12-13T13:18:25.597Z,31.95
2022-12-13T13:21:11.015Z,44.30
2022-12-13T13:23:41.202Z,42.60
2022-12-13T13:26:32.708Z,31.80
2022-12-13T13:29:27.664Z,48.25
2022-12-13T13:32:02.127Z,33.70
2022-12-13T13:34:32.090Z,36.03
2022-12-13T13:36:59.795Z,22.08
2022-12-13T13:39:29.420Z,17.95
2022-12-13T13:42:08.188Z,21.85
2022-12-13T13:44:34.797Z,26.02
2022-12-13T13:47:19.761Z,30.60
2022-12-13T13:50:02.042Z,17.42
2022-12-13T13:52:40.315Z,17.98
2022-12-13T13:55:25.753Z,37.25
2022-12-13T13:58:09.324Z,35.33
2022-12-13T14:00:54.679Z,25.55
2022-12-13T14:03:41.244Z,25.27
2022-12-13T14:06:12.605Z,21.63
2022-12-13T14:08:42.737Z,20.48
2022-12-13T14:11:09.454Z,28.40
2022-12-13T14:13:44.942Z,35.78
2022-12-13T14:16:29.279Z,23.70
2022-12-13T14:19:01.942Z,21.08
2022-12-13T14:21:31.674Z,30.20
2022-12-13T14:23:58.219Z,20.25
2022-12-13T14:26:30.777Z,28.40
2022-12-13T14:28:59.233Z,36.25
2022-12-13T14:31:29.014Z,68.35
2022-12-13T14:33:56.788Z,29.67
2022-12-13T14:36:29.164Z,37.15
2022-12-13T14:38:59.650Z,36.10
2022-12-13T14:41:26.225Z,20.00
2022-12-13T14:43:53.156Z,21.83
2022-12-13T14:46:19.757Z,21.67
2022-12-13T14:48:54.011Z,26.52
2022-12-13T14:51:30.771Z,25.48
2022-12-13T14:53:58.636Z,31.80
2022-12-13T14:56:28.815Z,28.35
2022-12-13T14:58:57.085Z,28.88
2022-12-13T15:01:34.267Z,26.17
2022-12-13T15:04:20.511Z,31.13
2022-12-13T15:06:48.813Z,20.08
2022-12-13T15:09:16.538Z,33.13
2022-12-13T15:11:44.079Z,32.92
2022-12-13T15:14:15.680Z,23.77
2022-12-13T15:16:46.834Z,30.45
2022-12-13T15:19:30.120Z,23.80
2022-12-13T15:22:13.285Z,23.30
2022-12-13T15:24:46.993Z,28.13
2022-12-13T15:27:24.541Z,33.53
2022-12-13T15:29:51.953Z,35.28
2022-12-13T15:32:19.478Z,18.90
2022-12-13T15:34:49.666Z,28.50
2022-12-13T15:37:28.254Z,24.25
2022-12-13T15:39:59.395Z,33.85
2022-12-13T15:42:32.851Z,18.48
2022-12-13T15:45:05.184Z,25.15
2022-12-13T15:47:32.151Z,20.90
2022-12-13T15:49:59.890Z,34.35
2022-12-13T15:52:32.814Z,16.92
2022-12-13T15:54:59.365Z,32.03
2022-12-13T15:57:27.855Z,12.88
2022-12-13T16:00:13.434Z,23.58
2022-12-13T16:03:08.928Z,18.73
2022-12-13T16:05:38.458Z,25.83
2022-12-13T16:08:18.327Z,16.20
2022-12-13T16:10:50.034Z,26.40
2022-12-13T16:13:26.380Z,34.78
2022-12-13T16:16:00.127Z,23.50
2022-12-13T16:18:43.039Z,17.08
2022-12-13T16:21:10.242Z,27.17
2022-12-13T16:23:36.799Z,15.38
2022-12-13T16:26:08.768Z,20.67
2022-12-13T16:28:35.999Z,27.33
2022-12-13T16:31:15.286Z,17.00
2022-12-13T16:33:43.077Z,20.10
2022-12-13T16:36:10.202Z,20.45
2022-12-13T16:38:36.829Z,33.03
2022-12-13T16:41:09.277Z,20.40
2022-12-13T16:43:44.896Z,23.00
2022-12-13T16:47:12.561Z,24.90
2022-12-13T16:48:58.824Z,22.65
2022-12-13T16:51:25.484Z,27.33
2022-12-13T16:53:52.278Z,24.00
2022-12-13T16:56:21.986Z,17.75
2022-12-13T16:58:50.310Z,32.80
2022-12-13T17:01:20.906Z,32.05
2022-12-13T17:03:48.233Z,14.88
2022-12-13T17:06:16.130Z,22.88
2022-12-13T17:08:42.755Z,22.33
2022-12-13T17:11:14.647Z,19.38
2022-12-13T17:13:44.934Z,22.88
2022-12-13T17:16:11.636Z,24.17
2022-12-13T17:18:42.473Z,21.33
2022-12-13T17:21:09.730Z,20.20
2022-12-13T17:23:36.622Z,24.70
2022-12-13T17:26:04.613Z,11.65
2022-12-13T17:28:31.193Z,29.95
2022-12-13T17:31:16.444Z,12.02
2022-12-13T17:33:43.391Z,23.73
2022-12-13T17:36:10.722Z,29.65
2022-12-13T17:38:37.699Z,20.75
2022-12-13T17:41:04.321Z,22.80
2022-12-13T17:43:34.897Z,19.30
2022-12-13T17:46:06.791Z,28.48
2022-12-13T17:48:40.393Z,19.50
2022-12-13T17:51:08.426Z,14.63
2022-12-13T17:53:35.902Z,21.98
2022-12-13T17:56:04.074Z,22.02
2022-12-13T17:58:32.392Z,27.52
2022-12-13T18:00:59.254Z,19.52
2022-12-13T18:03:26.625Z,26.52
2022-12-13T18:05:57.908Z,26.60
2022-12-13T18:08:24.890Z,21.38
2022-12-13T18:11:23.508Z,18.77
2022-12-13T18:13:42.710Z,17.42
2022-12-13T18:16:10.756Z,16.65
2022-12-13T18:18:37.614Z,17.65
2022-12-13T18:21:05.881Z,25.10
2022-12-13T18:23:33.443Z,12.75
2022-12-13T18:26:00.523Z,19.20
2022-12-13T18:28:27.263Z,20.30
2022-12-13T18:30:56.971Z,15.95
2022-12-13T18:33:24.275Z,20.90
2022-12-13T18:35:51.154Z,24.33
2022-12-13T18:38:18.002Z,15.57
2022-12-13T18:40:44.906Z,20.45
2022-12-13T18:43:11.475Z,21.02
2022-12-13T18:45:38.164Z,25.13
2022-12-13T18:48:05.551Z,26.88
2022-12-13T18:50:33.549Z,20.23
2022-12-13T18:53:00.300Z,13.60
2022-12-13T18:55:27.562Z,11.25
2022-12-13T18:57:54.332Z,19.45
2022-12-13T19:00:21.028Z,22.45
2022-12-13T19:02:47.730Z,10.10
2022-12-13T19:05:14.545Z,28.35
2022-12-13T19:07:41.321Z,24.77
2022-12-13T19:10:08.429Z,20.63
2022-12-13T19:12:35.172Z,18.73
2022-12-13T19:15:02.999Z,16.45
2022-12-13T19:17:29.672Z,9.70
2022-12-13T19:19:56.581Z,18.00
2022-12-13T19:22:23.291Z,15.65
2022-12-13T19:24:49.913Z,19.25
2022-12-13T19:27:16.562Z,24.23
2022-12-13T19:29:43.284Z,18.38
2022-12-13T19:32:10.022Z,11.20
2022-12-13T19:34:36.890Z,21.58
2022-12-13T19:37:06.559Z,26.85
2022-12-13T19:39:33.536Z,15.88
2022-12-13T19:42:00.177Z,21.05
2022-12-13T19:44:26.834Z,19.55
2022-12-13T19:46:53.572Z,12.63
2022-12-13T19:49:20.922Z,21.73
2022-12-13T19:51:47.479Z,15.73
2022-12-13T19:54:14.162Z,13.10
2022-12-13T19:56:40.685Z,26.55
2022-12-13T19:59:07.214Z,15.48
2022-12-13T20:01:34.753Z,13.05
2022-12-13T20:04:01.869Z,16.85
2022-12-13T20:06:28.382Z,18.17
2022-12-13T20:08:55.011Z,18.77
2022-12-13T20:11:23.044Z,21.15
2022-12-13T20:13:52.661Z,22.67
2022-12-13T20:16:20.480Z,30.80
2022-12-13T20:18:47.555Z,27.05
2022-12-13T20:21:15.044Z,30.92
2022-12-13T20:23:49.453Z,23.85
2022-12-13T20:26:18.090Z,17.77
2022-12-13T20:28:44.776Z,20.90
2022-12-13T20:31:13.580Z,21.33
2022-12-13T20:33:42.260Z,23.63
2022-12-13T20:36:27.392Z,19.55
2022-12-13T20:38:58.453Z,19.27
2022-12-13T20:41:30.024Z,14.63
2022-12-13T20:43:57.916Z,18.05
2022-12-13T20:46:25.690Z,28.23
2022-12-13T20:48:52.914Z,12.70
2022-12-13T20:51:20.809Z,36.50
2022-12-13T20:53:48.769Z,17.92
2022-12-13T20:56:16.787Z,24.98
2022-12-13T20:58:43.912Z,20.35
2022-12-13T21:01:18.043Z,17.95
2022-12-13T21:03:44.971Z,18.73
2022-12-13T21:06:11.826Z,17.60
2022-12-13T21:09:02.392Z,22.08
2022-12-13T21:11:30.983Z,14.95
2022-12-13T21:14:05.303Z,15.98
2022-12-13T21:16:33.753Z,10.18
2022-12-13T21:19:00.950Z,21.05
2022-12-13T21:21:28.406Z,23.98
2022-12-13T21:23:55.793Z,29.85
2022-12-13T21:26:23.221Z,17.67
2022-12-13T21:28:57.361Z,24.00
2022-12-13T21:31:24.252Z,21.90
2022-12-13T21:33:52.099Z,27.08
2022-12-13T21:36:21.833Z,25.20
2022-12-13T21:38:52.055Z,26.35
2022-12-13T21:41:18.599Z,25.58
2022-12-13T21:43:45.187Z,21.55
2022-12-13T21:46:16.791Z,22.98
2022-12-13T21:48:44.160Z,21.77
2022-12-13T21:51:11.987Z,28.33
2022-12-13T21:53:38.601Z,23.90
2022-12-13T21:56:24.199Z,18.67
2022-12-13T21:59:09.611Z,19.85
2022-12-13T22:01:55.341Z,25.90
2022-12-13T22:04:22.015Z,23.33
2022-12-13T22:06:48.558Z,21.15
2022-12-13T22:09:15.060Z,17.88
2022-12-13T22:11:41.559Z,17.95
2022-12-13T22:14:08.121Z,26.58
2022-12-13T22:16:34.760Z,25.80
2022-12-13T22:19:01.523Z,17.73
2022-12-13T22:21:28.164Z,22.83
2022-12-13T22:23:55.268Z,27.30
2022-12-13T22:26:22.825Z,22.92
2022-12-13T22:28:49.517Z,20.05
2022-12-13T22:31:16.847Z,20.77
2022-12-13T22:33:43.501Z,22.85
2022-12-13T22:36:10.346Z,21.25
2022-12-13T22:38:36.980Z,18.33
2022-12-13T22:41:04.259Z,20.05
2022-12-13T22:43:37.236Z,26.50
2022-12-13T22:46:04.996Z,13.80
2022-12-13T22:48:32.287Z,20.70
2022-12-13T22:51:06.259Z,18.55
2022-12-13T22:53:32.812Z,22.20
2022-12-13T22:56:06.994Z,31.75
2022-12-13T22:58:35.138Z,13.20
2022-12-13T23:01:08.546Z,21.08
2022-12-13T23:03:35.681Z,15.90
2022-12-13T23:06:07.539Z,22.15
2022-12-13T23:08:37.682Z,24.38
2022-12-13T23:11:27.294Z,20.33
2022-12-13T23:13:54.759Z,14.95
2022-12-13T23:16:22.907Z,17.05
2022-12-13T23:18:49.847Z,12.10
2022-12-13T23:21:24.197Z,27.17
2022-12-13T23:23:50.689Z,16.85
2022-12-13T23:26:18.840Z,25.67
2022-12-13T23:28:48.166Z,33.05
2022-12-13T23:31:15.117Z,20.85
2022-12-13T23:33:41.827Z,22.17
2022-12-13T23:36:09.995Z,21.65
2022-12-13T23:38:36.902Z,33.92
2022-12-13T23:41:04.924Z,20.38
2022-12-13T23:43:31.550Z,19.75
2022-12-13T23:45:58.639Z,27.92
2022-12-13T23:48:27.146Z,25.23
2022-12-13T23:50:54.425Z,29.52
2022-12-13T23:53:21.453Z,16.85
2022-12-13T23:55:48.917Z,32.03
2022-12-13T23:58:19.714Z,16.58
